Time;durP1;ratioP1;P1;durP2;ratioP2;P2;SDS_P1;SDS_P2;PMS_P1;PMS_P2;Temp;Humidity;BMP_temperature;BMP_pressure;BME280_temperature;BME280_humidity;BME280_pressure;Samples;Min_cycle;Max_cycle;Signal;HPM_P1;HPM_P2
2024/01/08 00:00:06;;;;;;;0.10;0.10;;;1.30;99.90;;;;;;4968280;28;20438;-69
2024/01/08 00:02:31;;;;;;;0.28;0.28;;;1.30;99.90;;;;;;4992633;28;20479;-68
2024/01/08 00:04:57;;;;;;;0.68;0.68;;;1.30;99.90;;;;;;4967738;28;20171;-67
2024/01/08 00:07:23;;;;;;;0.20;0.20;;;1.30;99.90;;;;;;4970957;28;20427;-67
2024/01/08 00:09:48;;;;;;;0.20;0.20;;;1.30;99.90;;;;;;4961375;28;20086;-68
2024/01/08 00:12:14;;;;;;;0.20;0.20;;;1.40;99.90;;;;;;4961062;28;20129;-68
2024/01/08 00:14:39;;;;;;;0.20;0.20;;;1.30;99.90;;;;;;4968220;28;20058;-68
2024/01/08 00:17:05;;;;;;;0.17;0.17;;;1.30;99.90;;;;;;4961426;28;20043;-67
2024/01/08 00:19:31;;;;;;;0.20;0.20;;;1.30;99.90;;;;;;4964429;28;20039;-68
2024/01/08 00:21:57;;;;;;;0.30;0.30;;;1.30;99.90;;;;;;4959630;28;20074;-68
2024/01/08 00:24:23;;;;;;;1.40;1.35;;;1.40;99.90;;;;;;4969062;28;20077;-68
2024/01/08 00:26:48;;;;;;;0.10;0.10;;;1.30;99.90;;;;;;4970193;28;20054;-68
2024/01/08 00:29:14;;;;;;;0.10;0.10;;;1.30;99.90;;;;;;4969006;28;20042;-67
2024/01/08 00:31:39;;;;;;;0.17;0.17;;;1.40;99.90;;;;;;4958011;28;20047;-68
2024/01/08 00:34:05;;;;;;;0.10;0.10;;;1.30;99.90;;;;;;4968014;28;20619;-67
2024/01/08 00:36:31;;;;;;;0.10;0.10;;;1.30;99.90;;;;;;4964070;28;20061;-68
2024/01/08 00:38:57;;;;;;;0.73;0.73;;;1.30;99.90;;;;;;4969235;28;20093;-68
2024/01/08 00:41:22;;;;;;;0.10;0.10;;;1.30;99.90;;;;;;4965721;28;20121;-67
2024/01/08 00:43:49;;;;;;;0.20;0.20;;;1.40;99.90;;;;;;4957675;28;20418;-67
2024/01/08 00:46:14;;;;;;;0.10;0.10;;;1.30;99.90;;;;;;4959761;28;20175;-67
2024/01/08 00:48:40;;;;;;;0.10;0.10;;;1.20;99.90;;;;;;4954583;28;20134;-67
2024/01/08 00:51:05;;;;;;;0.20;0.20;;;1.30;99.90;;;;;;4960242;28;20043;-68
2024/01/08 00:53:31;;;;;;;0.22;0.22;;;1.20;99.90;;;;;;4960849;28;20488;-68
2024/01/08 00:55:56;;;;;;;0.10;0.10;;;1.20;99.90;;;;;;4969579;28;20031;-68
2024/01/08 00:58:22;;;;;;;0.20;0.20;;;1.20;99.90;;;;;;4969651;28;20074;-68
2024/01/08 01:00:47;;;;;;;0.20;0.20;;;1.20;99.90;;;;;;4959845;28;20051;-67
2024/01/08 01:03:13;;;;;;;0.10;0.10;;;1.20;99.90;;;;;;4963643;28;20395;-68
2024/01/08 01:05:38;;;;;;;0.20;0.20;;;1.30;99.90;;;;;;4960215;28;20118;-68
2024/01/08 01:08:04;;;;;;;0.25;0.25;;;1.30;99.90;;;;;;4965003;28;20058;-68
2024/01/08 01:10:30;;;;;;;0.20;0.20;;;1.30;99.90;;;;;;4965142;28;20050;-68
2024/01/08 01:12:55;;;;;;;0.10;0.10;;;1.30;99.90;;;;;;4966356;28;20511;-68
2024/01/08 01:15:21;;;;;;;0.10;0.10;;;1.30;99.90;;;;;;4959214;28;20073;-68
2024/01/08 01:17:46;;;;;;;0.10;0.10;;;1.40;99.90;;;;;;4959737;28;20530;-68
2024/01/08 01:20:12;;;;;;;0.10;0.10;;;1.30;99.90;;;;;;4959121;28;20065;-68
2024/01/08 01:22:38;;;;;;;0.10;0.10;;;1.30;99.90;;;;;;4954210;28;20059;-67
2024/01/08 01:25:04;;;;;;;0.30;0.30;;;1.30;99.90;;;;;;4989843;28;20047;-68
2024/01/08 01:27:29;;;;;;;0.13;0.13;;;1.30;99.90;;;;;;4954707;28;20054;-68
2024/01/08 01:29:55;;;;;;;3.20;1.98;;;1.30;99.90;;;;;;4959073;28;20046;-68
2024/01/08 01:32:20;;;;;;;0.10;0.10;;;1.30;99.90;;;;;;4968250;28;20050;-68
2024/01/08 01:34:46;;;;;;;0.10;0.10;;;1.30;99.90;;;;;;4963003;28;20676;-68
2024/01/08 01:37:11;;;;;;;0.10;0.10;;;1.30;99.90;;;;;;4959492;28;20502;-68
2024/01/08 01:39:37;;;;;;;0.10;0.10;;;1.30;99.90;;;;;;4972319;28;20454;-68
2024/01/08 01:42:03;;;;;;;0.10;0.10;;;1.30;99.90;;;;;;4962612;28;20042;-67
2024/01/08 01:44:28;;;;;;;0.17;0.17;;;1.30;99.90;;;;;;4958052;28;20077;-68
2024/01/08 01:46:55;;;;;;;0.30;0.30;;;1.20;99.90;;;;;;4960634;28;20507;-68
2024/01/08 01:49:22;;;;;;;0.10;0.10;;;1.20;99.90;;;;;;4961515;28;20487;-68
2024/01/08 01:51:50;;;;;;;0.10;0.10;;;1.20;99.90;;;;;;4968462;28;20391;-68
2024/01/08 01:54:18;;;;;;;0.10;0.10;;;1.10;99.90;;;;;;4958545;28;20043;-68
2024/01/08 01:56:56;;;;;;;0.13;0.13;;;1.10;99.90;;;;;;4963241;28;20058;-68
2024/01/08 01:59:23;;;;;;;0.10;0.10;;;1.00;99.90;;;;;;4969490;28;20042;-67
2024/01/08 02:01:49;;;;;;;0.10;0.10;;;0.90;99.90;;;;;;4969284;28;20291;-68
2024/01/08 02:04:16;;;;;;;0.75;0.75;;;0.90;99.90;;;;;;4957743;28;20051;-67
2024/01/08 02:06:44;;;;;;;0.10;0.10;;;0.90;99.90;;;;;;4963065;28;20039;-68
2024/01/08 02:09:13;;;;;;;0.10;0.10;;;0.90;99.90;;;;;;4968028;28;20078;-68
2024/01/08 02:11:39;;;;;;;0.43;0.38;;;0.80;99.90;;;;;;4965042;28;20051;-68
2024/01/08 02:14:05;;;;;;;0.10;0.10;;;0.80;99.90;;;;;;4966620;28;20380;-67
2024/01/08 02:16:30;;;;;;;0.20;0.20;;;0.80;99.90;;;;;;4971368;28;20118;-67
2024/01/08 02:18:56;;;;;;;0.20;0.20;;;0.70;99.90;;;;;;4965612;28;20092;-67
2024/01/08 02:21:22;;;;;;;0.90;0.90;;;0.70;99.90;;;;;;4964867;28;20352;-67
2024/01/08 02:23:47;;;;;;;0.52;0.52;;;0.60;99.90;;;;;;4970785;28;20050;-67
2024/01/08 02:26:14;;;;;;;0.10;0.10;;;0.60;99.90;;;;;;4962647;28;20539;-67
2024/01/08 02:28:39;;;;;;;0.57;0.57;;;0.60;99.90;;;;;;4990860;28;20047;-67
2024/01/08 02:31:05;;;;;;;0.20;0.20;;;0.60;99.90;;;;;;4966353;28;20093;-67
2024/01/08 02:33:31;;;;;;;0.32;0.32;;;0.60;99.90;;;;;;4970506;28;20031;-67
2024/01/08 02:35:57;;;;;;;1.35;1.33;;;0.50;99.90;;;;;;4962467;28;20518;-67
2024/01/08 02:38:23;;;;;;;0.15;0.15;;;0.60;99.90;;;;;;4967735;28;20045;-67
2024/01/08 02:40:49;;;;;;;0.93;0.93;;;0.50;99.90;;;;;;4961128;28;21159;-67
2024/01/08 02:43:14;;;;;;;0.20;0.20;;;0.50;99.90;;;;;;4967350;28;20047;-67
2024/01/08 02:45:40;;;;;;;0.10;0.10;;;0.50;99.90;;;;;;4991143;28;20459;-67
2024/01/08 02:48:06;;;;;;;0.20;0.20;;;0.60;99.90;;;;;;4971753;28;20046;-67
2024/01/08 02:50:31;;;;;;;0.10;0.10;;;0.60;99.90;;;;;;4969008;28;20054;-67
2024/01/08 02:52:57;;;;;;;0.10;0.10;;;0.60;99.90;;;;;;4961069;28;20487;-67
2024/01/08 02:55:22;;;;;;;3.83;0.85;;;0.60;99.90;;;;;;4967376;28;20054;-68
2024/01/08 02:57:48;;;;;;;0.25;0.25;;;0.60;99.90;;;;;;4966059;28;20125;-67
2024/01/08 03:00:14;;;;;;;0.20;0.20;;;0.70;99.90;;;;;;4969578;28;20105;-67
2024/01/08 03:02:40;;;;;;;0.10;0.10;;;0.70;99.90;;;;;;4956702;28;20043;-67
2024/01/08 03:05:05;;;;;;;0.20;0.20;;;0.70;99.90;;;;;;4959355;28;20043;-68
2024/01/08 03:07:31;;;;;;;0.10;0.10;;;0.60;99.90;;;;;;4966014;28;20050;-67
2024/01/08 03:09:58;;;;;;;0.20;0.20;;;0.70;99.90;;;;;;4969256;28;20087;-68
2024/01/08 03:12:24;;;;;;;0.20;0.20;;;0.70;99.90;;;;;;4958565;28;20046;-67
2024/01/08 03:14:51;;;;;;;0.10;0.10;;;0.70;99.90;;;;;;4967765;28;20038;-67
2024/01/08 03:17:16;;;;;;;0.40;0.40;;;0.70;99.90;;;;;;5002681;28;20074;-67
2024/01/08 03:19:42;;;;;;;0.80;0.80;;;0.80;99.90;;;;;;4957916;28;20467;-68
2024/01/08 03:22:08;;;;;;;0.30;0.30;;;0.80;99.90;;;;;;4991774;28;20113;-67
2024/01/08 03:24:34;;;;;;;0.20;0.20;;;0.80;99.90;;;;;;4960178;28;20051;-67
2024/01/08 03:27:00;;;;;;;0.20;0.20;;;0.80;99.90;;;;;;4966437;28;20054;-67
2024/01/08 03:29:25;;;;;;;0.15;0.15;;;0.90;99.90;;;;;;4962462;28;20047;-67
2024/01/08 03:31:51;;;;;;;0.65;0.65;;;0.90;99.90;;;;;;4952923;28;20396;-67
2024/01/08 03:34:17;;;;;;;0.20;0.20;;;0.90;99.90;;;;;;4963372;28;20085;-67
2024/01/08 03:36:46;;;;;;;0.20;0.20;;;0.90;99.90;;;;;;4962540;28;20138;-67
2024/01/08 03:39:13;;;;;;;0.10;0.10;;;1.00;99.90;;;;;;4967633;28;20117;-67
2024/01/08 03:41:39;;;;;;;0.10;0.10;;;1.00;99.90;;;;;;4969910;28;20062;-67
2024/01/08 03:44:06;;;;;;;0.13;0.13;;;1.00;99.90;;;;;;4969488;28;20089;-67
2024/01/08 03:46:31;;;;;;;0.20;0.20;;;1.00;99.90;;;;;;4967029;28;20050;-67
2024/01/08 03:48:57;;;;;;;0.10;0.10;;;0.90;99.90;;;;;;4963748;28;20046;-67
2024/01/08 03:51:23;;;;;;;0.20;0.20;;;1.00;99.90;;;;;;4969281;28;20046;-67
2024/01/08 03:53:48;;;;;;;0.20;0.20;;;1.00;99.90;;;;;;4961475;28;20050;-67
2024/01/08 03:56:14;;;;;;;0.20;0.20;;;1.00;99.90;;;;;;4989180;28;20142;-67
2024/01/08 03:58:40;;;;;;;0.10;0.10;;;1.00;99.90;;;;;;4964643;28;20043;-67
2024/01/08 04:01:05;;;;;;;0.68;0.68;;;1.00;99.90;;;;;;4966001;28;20085;-67
2024/01/08 04:03:31;;;;;;;0.25;0.25;;;1.00;99.90;;;;;;4969244;28;20066;-68
2024/01/08 04:05:56;;;;;;;0.10;0.10;;;1.00;99.90;;;;;;4968880;28;20038;-67
2024/01/08 04:08:22;;;;;;;0.10;0.10;;;1.10;99.90;;;;;;4969020;28;20039;-68
2024/01/08 04:10:47;;;;;;;0.10;0.10;;;1.10;99.90;;;;;;4965409;28;20050;-67
2024/01/08 04:13:13;;;;;;;0.10;0.10;;;1.10;99.90;;;;;;4954247;28;20174;-68
2024/01/08 04:15:38;;;;;;;0.13;0.13;;;1.10;99.90;;;;;;4976213;28;20054;-68
2024/01/08 04:18:04;;;;;;;0.20;0.20;;;1.20;99.90;;;;;;4963864;28;20043;-68
2024/01/08 04:20:30;;;;;;;0.30;0.30;;;1.20;99.90;;;;;;4951658;28;20043;-67
2024/01/08 04:22:56;;;;;;;0.25;0.25;;;1.10;99.90;;;;;;4962710;28;20069;-67
2024/01/08 04:25:21;;;;;;;1.17;0.82;;;1.10;99.90;;;;;;4961867;28;20121;-67
2024/01/08 04:27:48;;;;;;;0.20;0.20;;;1.10;99.90;;;;;;4959492;28;20073;-68
2024/01/08 04:30:14;;;;;;;0.10;0.10;;;1.10;99.90;;;;;;4964811;28;20051;-68
2024/01/08 04:32:40;;;;;;;0.10;0.10;;;1.10;99.90;;;;;;4994516;28;20054;-67
2024/01/08 04:35:06;;;;;;;0.20;0.20;;;1.10;99.90;;;;;;4963208;28;20399;-68
2024/01/08 04:37:33;;;;;;;0.10;0.10;;;1.10;99.90;;;;;;4966726;28;20097;-68
2024/01/08 04:39:59;;;;;;;0.10;0.10;;;1.10;99.90;;;;;;4971305;28;20079;-68
2024/01/08 04:42:24;;;;;;;0.10;0.10;;;1.10;99.90;;;;;;4964493;28;20078;-67
2024/01/08 04:44:50;;;;;;;0.15;0.15;;;1.20;99.90;;;;;;4965865;28;20494;-68
2024/01/08 04:47:15;;;;;;;0.20;0.20;;;1.10;99.90;;;;;;4967351;28;20500;-67
2024/01/08 04:49:41;;;;;;;0.57;0.57;;;1.10;99.90;;;;;;4962390;28;20054;-67
2024/01/08 04:52:07;;;;;;;0.10;0.10;;;1.20;99.90;;;;;;4987169;28;20079;-67
2024/01/08 04:54:32;;;;;;;0.10;0.10;;;1.10;99.90;;;;;;4994366;28;20053;-67
2024/01/08 04:56:58;;;;;;;0.15;0.15;;;1.10;99.90;;;;;;4963250;28;20034;-67
2024/01/08 04:59:24;;;;;;;0.20;0.20;;;1.20;99.90;;;;;;4964241;28;20039;-67
2024/01/08 05:01:50;;;;;;;0.75;0.75;;;1.10;99.90;;;;;;4964562;28;20035;-67
2024/01/08 05:04:16;;;;;;;0.32;0.32;;;1.10;99.90;;;;;;4962780;28;20086;-67
2024/01/08 05:06:43;;;;;;;0.60;0.60;;;1.10;99.90;;;;;;4965163;28;20047;-68
2024/01/08 05:09:10;;;;;;;2.65;1.65;;;1.10;99.90;;;;;;4950663;28;20055;-68
2024/01/08 05:11:35;;;;;;;0.20;0.20;;;1.10;99.90;;;;;;4960235;28;20062;-68
2024/01/08 05:14:03;;;;;;;0.90;0.90;;;1.10;99.90;;;;;;4997110;28;20150;-68
2024/01/08 05:16:29;;;;;;;0.10;0.10;;;1.10;99.90;;;;;;4972287;28;20081;-68
2024/01/08 05:18:54;;;;;;;0.30;0.30;;;1.10;99.90;;;;;;4960871;28;20493;-68
2024/01/08 05:21:20;;;;;;;2.63;1.75;;;1.10;99.90;;;;;;4964516;28;20487;-67
2024/01/08 05:23:46;;;;;;;0.10;0.10;;;1.10;99.90;;;;;;4972669;28;20396;-68
2024/01/08 05:26:11;;;;;;;0.30;0.30;;;1.10;99.90;;;;;;4959305;28;20043;-67
2024/01/08 05:28:37;;;;;;;0.10;0.10;;;1.10;99.90;;;;;;4967484;28;20047;-67
2024/01/08 05:31:03;;;;;;;0.50;0.50;;;1.10;99.90;;;;;;4972310;28;20050;-67
2024/01/08 05:33:28;;;;;;;0.20;0.20;;;1.10;99.90;;;;;;4966943;28;20042;-68
2024/01/08 05:35:54;;;;;;;0.10;0.10;;;1.10;99.90;;;;;;4963645;28;20504;-68
2024/01/08 05:38:20;;;;;;;0.10;0.10;;;1.10;99.90;;;;;;4974778;28;20046;-67
2024/01/08 05:40:46;;;;;;;0.85;0.85;;;1.10;99.90;;;;;;4960506;28;20138;-68
2024/01/08 05:43:13;;;;;;;0.10;0.10;;;1.10;99.90;;;;;;4963793;28;20514;-67
2024/01/08 05:45:38;;;;;;;0.10;0.10;;;1.00;99.90;;;;;;4965856;28;20058;-68
2024/01/08 05:48:05;;;;;;;0.10;0.10;;;1.00;99.90;;;;;;4961524;28;20051;-68
2024/01/08 05:50:30;;;;;;;0.10;0.10;;;1.00;99.90;;;;;;4956578;28;20038;-68
2024/01/08 05:52:56;;;;;;;0.22;0.22;;;1.10;99.90;;;;;;4960884;28;20043;-67
2024/01/08 05:55:22;;;;;;;0.20;0.20;;;1.00;99.90;;;;;;4966178;28;20038;-67
2024/01/08 05:57:48;;;;;;;0.17;0.17;;;0.90;99.90;;;;;;4964141;28;20086;-68
2024/01/08 06:00:15;;;;;;;0.50;0.43;;;1.00;99.90;;;;;;4960529;28;20074;-67
2024/01/08 06:02:41;;;;;;;0.10;0.10;;;1.00;99.90;;;;;;4964950;28;20043;-67
2024/01/08 06:05:07;;;;;;;0.52;0.52;;;0.90;99.90;;;;;;4963364;28;20081;-68
2024/01/08 06:07:33;;;;;;;0.10;0.10;;;0.90;99.90;;;;;;4996442;28;20201;-67
2024/01/08 06:09:59;;;;;;;0.20;0.20;;;0.80;99.90;;;;;;4964236;28;20055;-67
2024/01/08 06:12:24;;;;;;;0.13;0.13;;;0.80;99.90;;;;;;4963123;28;20039;-67
2024/01/08 06:14:50;;;;;;;0.30;0.30;;;0.70;99.90;;;;;;4969965;28;20039;-67
2024/01/08 06:17:17;;;;;;;1.27;1.27;;;0.70;99.90;;;;;;4974089;28;20384;-67
2024/01/08 06:19:42;;;;;;;0.20;0.20;;;0.60;99.90;;;;;;4961840;28;20105;-67
2024/01/08 06:22:08;;;;;;;0.15;0.15;;;0.60;99.90;;;;;;4964044;28;20039;-67
2024/01/08 06:24:34;;;;;;;0.10;0.10;;;0.60;99.90;;;;;;4991179;28;20051;-68
2024/01/08 06:26:59;;;;;;;0.20;0.20;;;0.50;99.90;;;;;;4963476;28;20506;-67
2024/01/08 06:29:25;;;;;;;0.25;0.25;;;0.60;99.90;;;;;;4966284;28;20047;-68
2024/01/08 06:31:51;;;;;;;0.52;0.52;;;0.50;99.90;;;;;;4962429;28;20039;-68
2024/01/08 06:34:17;;;;;;;0.17;0.17;;;0.50;99.90;;;;;;4961900;28;20831;-68
2024/01/08 06:36:43;;;;;;;1.63;1.52;;;0.50;99.90;;;;;;4967611;28;20078;-68
2024/01/08 06:39:12;;;;;;;0.22;0.22;;;0.40;99.90;;;;;;4963380;28;20118;-67
2024/01/08 06:41:37;;;;;;;0.20;0.20;;;0.40;99.90;;;;;;4961030;28;20047;-68
2024/01/08 06:44:04;;;;;;;0.32;0.32;;;0.40;99.90;;;;;;4962170;28;20055;-67
2024/01/08 06:46:29;;;;;;;0.20;0.20;;;0.40;99.90;;;;;;4969658;28;20537;-68
2024/01/08 06:48:55;;;;;;;0.20;0.20;;;0.30;99.90;;;;;;4970363;28;20047;-68
2024/01/08 06:51:21;;;;;;;0.20;0.20;;;0.30;99.90;;;;;;4961492;28;20039;-68
2024/01/08 06:53:47;;;;;;;0.10;0.10;;;0.20;99.90;;;;;;4970352;28;20050;-68
2024/01/08 06:56:13;;;;;;;3.60;1.30;;;0.30;99.90;;;;;;4964828;28;20443;-68
2024/01/08 06:58:38;;;;;;;0.63;0.63;;;0.30;99.90;;;;;;4962193;28;20047;-68
2024/01/08 07:01:05;;;;;;;0.17;0.17;;;0.30;99.90;;;;;;5000943;28;20084;-68
2024/01/08 07:03:31;;;;;;;0.20;0.20;;;0.20;99.90;;;;;;4965444;28;20039;-68
2024/01/08 07:05:56;;;;;;;0.20;0.20;;;0.20;99.90;;;;;;4966550;28;20486;-68
2024/01/08 07:08:22;;;;;;;0.80;0.40;;;0.20;99.90;;;;;;4959632;28;20049;-68
2024/01/08 07:10:47;;;;;;;0.15;0.15;;;0.20;99.90;;;;;;4969194;28;20050;-68
2024/01/08 07:13:15;;;;;;;0.20;0.20;;;0.20;99.90;;;;;;4969847;28;20034;-68
2024/01/08 07:15:44;;;;;;;0.30;0.30;;;0.20;99.90;;;;;;4974398;28;20498;-68
2024/01/08 07:18:10;;;;;;;0.20;0.20;;;0.20;99.90;;;;;;4961716;28;20490;-68
2024/01/08 07:20:40;;;;;;;0.30;0.30;;;0.20;99.90;;;;;;4968056;28;20053;-68
2024/01/08 07:23:08;;;;;;;0.20;0.20;;;0.20;99.90;;;;;;4969626;28;20051;-68
2024/01/08 07:25:41;;;;;;;0.10;0.10;;;0.20;99.90;;;;;;4959393;28;20043;-68
2024/01/08 07:28:10;;;;;;;;;;;0.20;99.90;;;;;;4965064;28;20554;-68
2024/01/08 07:30:37;;;;;;;0.10;0.10;;;0.20;99.90;;;;;;4970138;28;19922;-68
2024/01/08 07:33:03;;;;;;;0.80;0.80;;;0.20;99.90;;;;;;4965617;28;20065;-68
2024/01/08 07:35:29;;;;;;;0.13;0.13;;;0.20;99.90;;;;;;4990583;28;20047;-68
2024/01/08 07:37:57;;;;;;;0.17;0.17;;;0.30;99.90;;;;;;4972115;28;20080;-68
2024/01/08 07:40:26;;;;;;;0.20;0.20;;;0.30;99.90;;;;;;4964736;28;20518;-68
2024/01/08 07:42:56;;;;;;;20.17;1.85;;;0.20;99.90;;;;;;4960248;28;20078;-67
2024/01/08 07:45:23;;;;;;;0.10;0.10;;;0.20;99.90;;;;;;4974102;28;20380;-68
2024/01/08 07:47:49;;;;;;;0.20;0.20;;;0.30;99.90;;;;;;4959629;28;20495;-68
2024/01/08 07:50:15;;;;;;;0.20;0.20;;;0.30;99.90;;;;;;4991565;28;20058;-68
2024/01/08 07:52:41;;;;;;;0.20;0.20;;;0.30;99.90;;;;;;4964889;28;20487;-68
2024/01/08 07:55:08;;;;;;;0.10;0.10;;;0.20;99.90;;;;;;4958830;28;20492;-68
2024/01/08 07:57:34;;;;;;;0.20;0.20;;;0.20;99.90;;;;;;4992214;28;20065;-68
2024/01/08 08:00:00;;;;;;;0.17;0.17;;;0.20;99.90;;;;;;4967761;28;20101;-68
2024/01/08 08:02:26;;;;;;;0.22;0.22;;;0.20;99.90;;;;;;4959732;28;20070;-67
2024/01/08 08:04:53;;;;;;;0.10;0.10;;;0.30;99.90;;;;;;4956916;28;20470;-68
2024/01/08 08:07:19;;;;;;;0.20;0.20;;;0.30;99.90;;;;;;4992017;28;20039;-67
2024/01/08 08:09:45;;;;;;;0.10;0.10;;;0.30;99.90;;;;;;4967152;28;20107;-68
2024/01/08 08:12:10;;;;;;;0.10;0.10;;;0.30;99.90;;;;;;4994165;28;20126;-68
2024/01/08 08:14:36;;;;;;;0.10;0.10;;;0.30;99.90;;;;;;4962010;28;21336;-68
2024/01/08 08:17:03;;;;;;;0.10;0.10;;;0.30;99.90;;;;;;4963304;28;20508;-68
2024/01/08 08:19:29;;;;;;;0.13;0.13;;;0.30;99.90;;;;;;4986791;28;20043;-68
2024/01/08 08:21:54;;;;;;;1.05;1.05;;;0.40;99.90;;;;;;4966202;28;20049;-67
2024/01/08 08:24:20;;;;;;;0.20;0.20;;;0.40;99.90;;;;;;4959329;28;21387;-68
2024/01/08 08:26:46;;;;;;;0.30;0.30;;;0.40;99.90;;;;;;4988196;28;20051;-67
2024/01/08 08:29:12;;;;;;;0.17;0.17;;;0.40;99.90;;;;;;4965254;28;20039;-68
2024/01/08 08:31:38;;;;;;;0.20;0.20;;;0.40;99.90;;;;;;4964801;28;20043;-69
2024/01/08 08:34:03;;;;;;;0.32;0.32;;;0.50;99.90;;;;;;4953380;28;20101;-68
2024/01/08 08:36:29;;;;;;;0.50;0.50;;;0.50;99.90;;;;;;4962673;28;20039;-68
2024/01/08 08:38:56;;;;;;;0.10;0.10;;;0.60;99.90;;;;;;4956901;28;20494;-68
2024/01/08 08:41:22;;;;;;;0.13;0.13;;;0.60;99.90;;;;;;4965775;28;20495;-67
2024/01/08 08:43:48;;;;;;;0.10;0.10;;;0.70;99.90;;;;;;4994122;28;20062;-68
2024/01/08 08:46:15;;;;;;;0.20;0.20;;;0.70;99.90;;;;;;4962641;28;20047;-67
2024/01/08 08:48:41;;;;;;;0.28;0.28;;;0.70;99.90;;;;;;4959404;28;20447;-68
2024/01/08 08:51:06;;;;;;;0.17;0.17;;;0.70;99.90;;;;;;4961505;28;20043;-68
2024/01/08 08:53:32;;;;;;;0.17;0.17;;;0.80;99.90;;;;;;4954486;28;20066;-68
2024/01/08 08:55:57;;;;;;;0.20;0.20;;;0.80;99.90;;;;;;4998684;28;20129;-68
2024/01/08 08:58:23;;;;;;;0.10;0.10;;;0.80;99.90;;;;;;4964754;28;20042;-68
2024/01/08 09:00:50;;;;;;;0.20;0.20;;;0.80;99.90;;;;;;4998528;28;20145;-68
2024/01/08 09:03:15;;;;;;;0.10;0.10;;;0.80;99.90;;;;;;5002300;28;20054;-68
2024/01/08 09:05:41;;;;;;;0.10;0.10;;;0.90;99.90;;;;;;4967810;28;20050;-68
2024/01/08 09:08:07;;;;;;;0.60;0.60;;;0.90;99.90;;;;;;4971045;28;20055;-67
2024/01/08 09:10:33;;;;;;;0.20;0.20;;;0.90;99.90;;;;;;4963735;28;20055;-67
2024/01/08 09:12:58;;;;;;;0.38;0.38;;;1.00;99.90;;;;;;4960872;28;20050;-67
2024/01/08 09:15:24;;;;;;;0.10;0.10;;;1.00;99.90;;;;;;4967226;28;20394;-67
2024/01/08 09:17:49;;;;;;;0.10;0.10;;;1.00;99.90;;;;;;4968889;28;20042;-67
2024/01/08 09:20:18;;;;;;;0.10;0.10;;;1.00;99.90;;;;;;4973610;28;20126;-67
2024/01/08 09:22:44;;;;;;;0.20;0.20;;;1.10;99.90;;;;;;4967888;28;20058;-68
2024/01/08 09:25:09;;;;;;;0.10;0.10;;;1.10;99.90;;;;;;4962568;28;20046;-68
2024/01/08 09:27:37;;;;;;;0.55;0.55;;;1.10;99.90;;;;;;4971751;28;20058;-68
2024/01/08 09:30:05;;;;;;;0.20;0.20;;;1.10;99.90;;;;;;4966953;28;20046;-68
2024/01/08 09:32:30;;;;;;;0.10;0.10;;;1.20;99.90;;;;;;4963546;28;20376;-68
2024/01/08 09:34:56;;;;;;;0.20;0.20;;;1.20;99.90;;;;;;5002175;28;20065;-68
2024/01/08 09:37:22;;;;;;;0.20;0.20;;;1.20;99.90;;;;;;5005613;28;20041;-67
2024/01/08 09:39:47;;;;;;;0.10;0.10;;;1.30;99.90;;;;;;4976518;28;20051;-68
2024/01/08 09:42:14;;;;;;;0.43;0.43;;;1.30;99.90;;;;;;4972851;28;20078;-65
2024/01/08 09:44:46;;;;;;;1.05;1.05;;;1.30;99.90;;;;;;4959992;28;20070;-68
2024/01/08 09:47:12;;;;;;;0.10;0.10;;;1.30;99.90;;;;;;4966142;28;20122;-68
2024/01/08 09:49:39;;;;;;;0.10;0.10;;;1.30;99.90;;;;;;4970901;28;20479;-69
2024/01/08 09:52:06;;;;;;;0.20;0.20;;;1.40;99.90;;;;;;4970030;28;20280;-69
2024/01/08 09:54:35;;;;;;;0.20;0.20;;;1.40;99.90;;;;;;4961168;28;20038;-70
2024/01/08 09:57:00;;;;;;;0.85;0.85;;;1.40;99.90;;;;;;4966477;28;20043;-68
2024/01/08 09:59:26;;;;;;;0.10;0.10;;;1.50;99.90;;;;;;4963724;28;20061;-70
2024/01/08 10:01:54;;;;;;;0.10;0.10;;;1.50;99.90;;;;;;4968216;28;20145;-67
2024/01/08 10:04:21;;;;;;;0.10;0.10;;;1.50;99.90;;;;;;4967683;28;20043;-67
2024/01/08 10:06:47;;;;;;;0.20;0.20;;;1.50;99.90;;;;;;4963993;28;20091;-66
2024/01/08 10:09:12;;;;;;;0.10;0.10;;;1.60;99.90;;;;;;4968451;28;20050;-66
2024/01/08 10:11:39;;;;;;;0.10;0.10;;;1.50;99.90;;;;;;4961024;28;20092;-66
2024/01/08 10:14:07;;;;;;;0.10;0.10;;;1.60;99.90;;;;;;4962631;28;20057;-66
2024/01/08 10:16:32;;;;;;;5.68;0.95;;;1.60;99.90;;;;;;4961783;28;20476;-66
2024/01/08 10:18:58;;;;;;;0.20;0.20;;;1.70;99.90;;;;;;4966178;28;20126;-66
2024/01/08 10:21:25;;;;;;;0.55;0.55;;;1.60;99.90;;;;;;4959190;28;20098;-66
2024/01/08 10:23:50;;;;;;;0.10;0.10;;;1.70;99.90;;;;;;4966293;28;20376;-67
2024/01/08 10:26:17;;;;;;;0.20;0.20;;;1.60;99.90;;;;;;4961351;28;20050;-67
2024/01/08 10:28:44;;;;;;;0.10;0.10;;;1.70;99.90;;;;;;4962727;28;20094;-67
2024/01/08 10:31:11;;;;;;;0.10;0.10;;;1.70;99.90;;;;;;4965681;28;20051;-66
2024/01/08 10:33:37;;;;;;;0.20;0.20;;;1.70;99.90;;;;;;4965001;28;20046;-67
2024/01/08 10:36:04;;;;;;;0.10;0.10;;;1.70;99.90;;;;;;4959653;28;20043;-67
2024/01/08 10:38:33;;;;;;;0.20;0.20;;;1.70;99.90;;;;;;4967774;28;20039;-67
2024/01/08 10:41:01;;;;;;;0.20;0.20;;;1.60;99.90;;;;;;4961516;28;20047;-67
2024/01/08 10:43:28;;;;;;;0.10;0.10;;;1.60;99.90;;;;;;4961784;28;20542;-66
2024/01/08 10:45:57;;;;;;;0.10;0.10;;;1.70;99.90;;;;;;4967611;28;20050;-67
2024/01/08 10:48:32;;;;;;;0.32;0.32;;;1.70;99.90;;;;;;4961377;28;20407;-69
2024/01/08 10:51:00;;;;;;;0.10;0.10;;;1.70;99.90;;;;;;4994435;28;20410;-68
2024/01/08 10:53:44;;;;;;;0.13;0.13;;;1.70;99.90;;;;;;4964688;28;20126;-69
2024/01/08 10:56:13;;;;;;;0.20;0.20;;;1.70;99.90;;;;;;4964838;28;20178;-69
2024/01/08 10:58:46;;;;;;;0.10;0.10;;;1.70;99.90;;;;;;4959436;28;20551;-68
2024/01/08 11:01:12;;;;;;;0.90;0.90;;;1.80;99.90;;;;;;4962747;28;20499;-69
2024/01/08 11:03:37;;;;;;;0.17;0.17;;;1.80;99.90;;;;;;4960722;28;20078;-69
2024/01/08 11:06:04;;;;;;;0.30;0.30;;;1.80;99.90;;;;;;4964330;28;20403;-69
2024/01/08 11:08:32;;;;;;;0.10;0.10;;;1.80;99.90;;;;;;4960442;28;20070;-69
2024/01/08 11:11:06;;;;;;;0.15;0.15;;;1.80;99.90;;;;;;4963532;28;20059;-69
2024/01/08 11:13:31;;;;;;;0.20;0.20;;;1.90;99.90;;;;;;4958615;28;20085;-69
2024/01/08 11:16:02;;;;;;;0.10;0.10;;;1.90;99.90;;;;;;4960477;28;20066;-67
2024/01/08 11:18:28;;;;;;;0.20;0.20;;;1.90;99.90;;;;;;4962581;28;20107;-66
2024/01/08 11:20:56;;;;;;;0.10;0.10;;;2.00;99.90;;;;;;4995082;28;20051;-66
2024/01/08 11:23:39;;;;;;;0.10;0.10;;;1.90;99.90;;;;;;4999232;28;20066;-64
2024/01/08 11:26:21;;;;;;;0.30;0.30;;;1.90;99.90;;;;;;4962199;28;20039;-65
2024/01/08 11:29:08;;;;;;;0.50;0.50;;;1.90;99.90;;;;;;4961768;28;20118;-66
2024/01/08 11:31:46;;;;;;;4.95;1.40;;;2.00;99.90;;;;;;4995884;28;20058;-66
2024/01/08 11:34:46;;;;;;;0.13;0.13;;;2.20;99.90;;;;;;4955335;28;20083;-67
2024/01/08 11:37:33;;;;;;;0.10;0.10;;;2.20;99.90;;;;;;4960621;28;20058;-67
2024/01/08 11:40:16;;;;;;;0.38;0.38;;;2.20;99.90;;;;;;4959788;28;20518;-66
2024/01/08 11:42:42;;;;;;;0.10;0.10;;;2.20;99.90;;;;;;4992433;28;20062;-67
2024/01/08 11:45:08;;;;;;;0.15;0.15;;;2.30;99.90;;;;;;4962715;28;20058;-67
2024/01/08 11:47:35;;;;;;;2.45;1.30;;;2.30;99.90;;;;;;4956025;28;20108;-67
2024/01/08 11:50:01;;;;;;;0.93;0.68;;;2.40;99.90;;;;;;4998052;28;20133;-66
2024/01/08 11:52:27;;;;;;;0.13;0.13;;;2.40;99.90;;;;;;4992181;28;20130;-66
2024/01/08 11:54:56;;;;;;;0.22;0.22;;;2.20;99.90;;;;;;4961967;28;20055;-66
2024/01/08 11:57:22;;;;;;;0.10;0.10;;;2.10;99.90;;;;;;4968717;28;20043;-66
2024/01/08 11:59:49;;;;;;;0.10;0.10;;;2.20;99.90;;;;;;4994213;28;20047;-66
2024/01/08 12:02:18;;;;;;;0.20;0.20;;;2.20;99.90;;;;;;4957115;28;20085;-66
2024/01/08 12:04:56;;;;;;;0.57;0.57;;;2.00;99.90;;;;;;4966273;28;20082;-67
2024/01/08 12:07:23;;;;;;;5.38;1.65;;;2.00;99.90;;;;;;4955882;28;20043;-66
2024/01/08 12:09:50;;;;;;;0.10;0.10;;;2.10;99.90;;;;;;4962715;28;20101;-67
2024/01/08 12:12:19;;;;;;;0.20;0.20;;;2.10;99.90;;;;;;4964725;28;20110;-66
2024/01/08 12:14:46;;;;;;;0.20;0.20;;;2.20;99.90;;;;;;4957470;28;20051;-66
2024/01/08 12:17:13;;;;;;;0.82;0.82;;;2.10;99.90;;;;;;4967913;28;20049;-67
2024/01/08 12:19:41;;;;;;;0.28;0.28;;;2.10;99.90;;;;;;4959794;28;20058;-67
2024/01/08 12:22:13;;;;;;;0.20;0.20;;;2.20;99.90;;;;;;4967924;28;20507;-67
2024/01/08 12:24:39;;;;;;;0.10;0.10;;;2.30;99.90;;;;;;4960960;28;20612;-67
2024/01/08 12:27:06;;;;;;;0.20;0.20;;;2.40;99.90;;;;;;4960042;28;20056;-67
2024/01/08 12:29:37;;;;;;;0.20;0.20;;;2.50;99.90;;;;;;4962268;28;20125;-66
2024/01/08 12:32:04;;;;;;;0.10;0.10;;;2.60;99.90;;;;;;4960277;28;20499;-67
2024/01/08 12:34:30;;;;;;;0.38;0.38;;;2.50;99.90;;;;;;4968698;28;20483;-67
2024/01/08 12:36:59;;;;;;;0.10;0.10;;;2.60;99.90;;;;;;4960607;28;20057;-67
2024/01/08 12:39:29;;;;;;;0.10;0.10;;;2.60;99.90;;;;;;4970049;28;20046;-66
2024/01/08 12:42:00;;;;;;;0.10;0.10;;;2.50;99.90;;;;;;4957402;28;20047;-66
2024/01/08 12:44:27;;;;;;;0.10;0.10;;;2.70;99.90;;;;;;4956163;28;20051;-66
2024/01/08 12:46:55;;;;;;;0.10;0.10;;;2.80;99.90;;;;;;4966468;28;20058;-67
2024/01/08 12:49:21;;;;;;;0.10;0.10;;;2.90;99.90;;;;;;4961331;28;20053;-67
2024/01/08 12:51:47;;;;;;;0.20;0.20;;;3.00;99.90;;;;;;4965676;28;20051;-67
2024/01/08 12:54:12;;;;;;;0.45;0.45;;;3.00;99.90;;;;;;4961921;28;20039;-67